Time;durP1;ratioP1;P1;durP2;ratioP2;P2;SDS_P1;SDS_P2;PMS_P1;PMS_P2;Temp;Humidity;BMP_temperature;BMP_pressure;BME280_temperature;BME280_humidity;BME280_pressure;Samples;Min_cycle;Max_cycle;Signal;HPM_P1;HPM_P2
2022/02/17 00:00:39;;;;;;;0.03;0.03;;;;;;;;;;5089810;28;20039;-58
2022/02/17 00:03:34;;;;;;;;;;;;;;;;;;;;;
2022/02/17 00:09:50;;;;;;;0.20;0.10;;;;;;;;;;5078238;28;20045;-58
2022/02/17 00:19:01;;;;;;;0.15;0.10;;;;;;;;;;5016747;28;20061;-58
2022/02/17 00:24:45;;;;;;;0.10;0.10;;;;;;;;;;5089858;28;20035;-58
2022/02/17 00:30:44;;;;;;;0.52;0.20;;;;;;;;;;5089766;28;20689;-58
2022/02/17 00:33:26;;;;;;;0.28;0.10;;;;;;;;;;5089463;28;20036;-58
2022/02/17 00:36:14;;;;;;;0.43;0.10;;;;;;;;;;5089407;28;20043;-58
2022/02/17 00:39:00;;;;;;;0.00;0.00;;;;;;;;;;5089425;28;20020;-58
2022/02/17 00:42:05;;;;;;;0.38;0.13;;;;;;;;;;5089466;28;20051;-58
2022/02/17 00:44:38;;;;;;;0.03;0.03;;;;;;;;;;5088523;28;20524;-58
2022/02/17 00:50:15;;;;;;;;;;;;;;;;;;5089352;28;20044;-58
2022/02/17 00:52:44;;;;;;;0.05;0.05;;;;;;;;;;5088840;28;19904;-58
2022/02/17 00:55:11;;;;;;;0.35;0.10;;;;;;;;;;5088923;28;20032;-57
2022/02/17 00:57:40;;;;;;;0.03;0.00;;;;;;;;;;5088887;28;20020;-58
2022/02/17 01:00:21;;;;;;;0.03;0.00;;;;;;;;;;5088909;28;20025;-58
2022/02/17 01:02:54;;;;;;;0.52;0.10;;;;;;;;;;5088908;28;20672;-58
2022/02/17 01:05:52;;;;;;;;;;;;;;;;;;;;;
2022/02/17 01:08:47;;;;;;;0.00;0.00;;;;;;;;;;5091190;28;20079;-58
2022/02/17 01:14:18;;;;;;;0.22;0.10;;;;;;;;;;5105353;28;20091;-59
2022/02/17 01:17:04;;;;;;;0.52;0.10;;;;;;;;;;5109030;28;20024;-58
2022/02/17 01:22:34;;;;;;;0.28;0.10;;;;;;;;;;5007178;28;20022;-58
2022/02/17 01:28:36;;;;;;;0.00;0.00;;;;;;;;;;5026895;28;20117;-58
2022/02/17 01:31:05;;;;;;;0.20;0.00;;;;;;;;;;5056171;28;20036;-57
2022/02/17 01:34:12;;;;;;;0.15;0.13;;;;;;;;;;5108752;28;20024;-57
2022/02/17 01:36:57;;;;;;;0.20;0.03;;;;;;;;;;5090862;28;20028;-58
2022/02/17 01:54:22;;;;;;;0.03;0.00;;;;;;;;;;5007532;28;20098;-58
2022/02/17 01:57:02;;;;;;;0.00;0.00;;;;;;;;;;5094404;28;20023;-58
2022/02/17 02:03:48;;;;;;;;;;;;;;;;;;;;;
2022/02/17 02:09:41;;;;;;;;;;;;;;;;;;;;;
2022/02/17 02:18:11;;;;;;;0.00;0.00;;;;;;;;;;5112175;28;20034;-58
2022/02/17 02:20:57;;;;;;;0.00;0.00;;;;;;;;;;5112282;28;20051;-58
2022/02/17 02:23:30;;;;;;;0.35;0.30;;;;;;;;;;5044422;28;20466;-58
2022/02/17 02:26:23;;;;;;;0.15;0.00;;;;;;;;;;5112311;28;20016;-58
2022/02/17 02:29:25;;;;;;;2.63;0.77;;;;;;;;;;5112024;28;20043;-58
2022/02/17 02:32:28;;;;;;;0.00;0.00;;;;;;;;;;5112443;28;20366;-58
2022/02/17 02:38:22;;;;;;;0.10;0.00;;;;;;;;;;5098403;28;20028;-58
2022/02/17 02:40:55;;;;;;;0.28;0.08;;;;;;;;;;5112465;28;20035;-58
2022/02/17 02:43:49;;;;;;;0.47;0.20;;;;;;;;;;5093735;28;20462;-58
2022/02/17 02:46:38;;;;;;;0.20;0.10;;;;;;;;;;5111172;28;20088;-58
2022/02/17 02:49:27;;;;;;;0.00;0.00;;;;;;;;;;5111862;28;20032;-58
2022/02/17 02:52:26;;;;;;;0.10;0.05;;;;;;;;;;5111568;28;20032;-56
2022/02/17 02:55:02;;;;;;;0.00;0.00;;;;;;;;;;5089974;28;20032;-58
2022/02/17 02:57:44;;;;;;;0.00;0.00;;;;;;;;;;5093520;28;20032;-58
2022/02/17 03:03:49;;;;;;;0.00;0.00;;;;;;;;;;5079832;28;20113;-58
2022/02/17 03:12:26;;;;;;;0.10;0.00;;;;;;;;;;5106913;28;20551;-58
2022/02/17 03:15:37;;;;;;;0.10;0.00;;;;;;;;;;5111138;28;20111;-57
2022/02/17 03:18:37;;;;;;;0.10;0.05;;;;;;;;;;5009019;28;20389;-58
2022/02/17 03:24:31;;;;;;;0.00;0.00;;;;;;;;;;5009473;28;20046;-58
2022/02/17 03:27:15;;;;;;;0.10;0.00;;;;;;;;;;5008841;28;20034;-58
2022/02/17 03:29:46;;;;;;;0.00;0.00;;;;;;;;;;5008314;28;20042;-58
2022/02/17 03:32:34;;;;;;;0.10;0.10;;;;;;;;;;5000787;28;20057;-58
2022/02/17 03:35:25;;;;;;;0.00;0.00;;;;;;;;;;5009162;28;20030;-58
2022/02/17 03:37:57;;;;;;;;;;;;;;;;;;5013982;28;20030;-58
2022/02/17 03:40:43;;;;;;;0.20;0.08;;;;;;;;;;5111344;28;19904;-58
2022/02/17 03:43:21;;;;;;;0.13;0.00;;;;;;;;;;5110780;28;20024;-58
2022/02/17 03:49:03;;;;;;;0.20;0.08;;;;;;;;;;5020886;28;20049;-58
2022/02/17 03:57:48;;;;;;;0.00;0.00;;;;;;;;;;5110106;28;20054;-58
2022/02/17 04:00:22;;;;;;;0.00;0.00;;;;;;;;;;5084980;28;20020;-57
2022/02/17 04:06:28;;;;;;;0.15;0.00;;;;;;;;;;5110059;28;20036;-58
2022/02/17 04:09:03;;;;;;;0.00;0.00;;;;;;;;;;5110132;28;20059;-58
2022/02/17 04:11:38;;;;;;;0.08;0.00;;;;;;;;;;5110319;28;20042;-58
2022/02/17 04:17:23;;;;;;;0.00;0.00;;;;;;;;;;5008037;28;20104;-58
2022/02/17 04:23:03;;;;;;;0.30;0.00;;;;;;;;;;5109554;28;20080;-57
2022/02/17 04:25:46;;;;;;;0.00;0.00;;;;;;;;;;5067283;28;20043;-58
2022/02/17 04:31:34;;;;;;;0.10;0.00;;;;;;;;;;5025529;28;20044;-58
2022/02/17 04:37:13;;;;;;;0.00;0.00;;;;;;;;;;5035237;28;20029;-58
2022/02/17 04:42:53;;;;;;;;;;;;;;;;;;;;;
2022/02/17 04:45:38;;;;;;;0.00;0.00;;;;;;;;;;5052288;28;20439;-58
2022/02/17 04:48:52;;;;;;;0.00;0.00;;;;;;;;;;5052266;28;20108;-57
2022/02/17 04:51:26;;;;;;;0.00;0.00;;;;;;;;;;5052179;28;20052;-57
2022/02/17 04:54:25;;;;;;;0.20;0.10;;;;;;;;;;5052903;28;20328;-58
2022/02/17 04:57:14;;;;;;;0.30;0.10;;;;;;;;;;5035714;28;20032;-58
2022/02/17 05:00:04;;;;;;;0.00;0.00;;;;;;;;;;5095279;28;20404;-58
2022/02/17 05:06:04;;;;;;;;;;;;;;;;;;;;;
2022/02/17 05:15:43;;;;;;;;;;;;;;;;;;;;;
2022/02/17 05:18:25;;;;;;;0.25;0.10;;;;;;;;;;5055343;28;20120;-58
2022/02/17 05:24:13;;;;;;;0.10;0.00;;;;;;;;;;5056829;28;20028;-56
2022/02/17 05:26:54;;;;;;;0.00;0.00;;;;;;;;;;5097529;28;20032;-57
2022/02/17 05:29:32;;;;;;;0.15;0.05;;;;;;;;;;5019624;28;20033;-58
2022/02/17 05:32:13;;;;;;;0.32;0.20;;;;;;;;;;5046187;28;20025;-57
2022/02/17 05:35:00;;;;;;;0.40;0.10;;;;;;;;;;5051527;28;20056;-57
2022/02/17 05:37:49;;;;;;;0.20;0.10;;;;;;;;;;5031864;28;20038;-58
2022/02/17 05:40:33;;;;;;;0.38;0.20;;;;;;;;;;5049309;28;20030;-57
2022/02/17 05:43:14;;;;;;;0.22;0.05;;;;;;;;;;5032521;28;20089;-58
2022/02/17 05:49:00;;;;;;;1.00;0.08;;;;;;;;;;5050270;28;20028;-57
2022/02/17 05:51:48;;;;;;;0.70;0.20;;;;;;;;;;5010744;28;20035;-58
2022/02/17 05:57:07;;;;;;;3.20;0.20;;;;;;;;;;5011053;28;20120;-58
2022/02/17 06:06:19;;;;;;;0.15;0.10;;;;;;;;;;5014465;28;20429;-58
2022/02/17 06:11:58;;;;;;;1.67;0.43;;;;;;;;;;5030550;28;20048;-56
2022/02/17 06:15:08;;;;;;;0.77;0.40;;;;;;;;;;5031666;28;20045;-57
2022/02/17 06:21:49;;;;;;;4.55;0.95;;;;;;;;;;5015003;28;20042;-57
2022/02/17 06:23:58;;;;;;;0.80;0.20;;;;;;;;;;4997344;28;20122;-57
2022/02/17 06:26:56;;;;;;;1.50;0.43;;;;;;;;;;5009741;28;20027;-57
2022/02/17 06:32:24;;;;;;;0.52;0.38;;;;;;;;;;5010177;28;20070;-58
2022/02/17 06:35:15;;;;;;;2.17;0.55;;;;;;;;;;4991407;28;20092;-57
2022/02/17 06:38:09;;;;;;;3.63;0.55;;;;;;;;;;5009114;28;20473;-57
2022/02/17 06:40:56;;;;;;;3.67;0.95;;;;;;;;;;5009052;28;20035;-57
2022/02/17 06:43:55;;;;;;;;;;;;;;;;;;;;;
2022/02/17 06:46:49;;;;;;;5.50;1.05;;;;;;;;;;5085919;28;20071;-56
2022/02/17 06:52:25;;;;;;;1.77;0.55;;;;;;;;;;5075936;28;20086;-57
2022/02/17 07:04:43;;;;;;;2.22;0.80;;;;;;;;;;5009364;28;20038;-57
2022/02/17 07:07:25;;;;;;;2.13;0.47;;;;;;;;;;5008651;28;20512;-58
2022/02/17 07:12:59;;;;;;;3.85;1.25;;;;;;;;;;5110880;28;20123;-56
2022/02/17 07:15:55;;;;;;;4.65;1.10;;;;;;;;;;5110097;28;20081;-58
2022/02/17 07:18:44;;;;;;;2.30;1.15;;;;;;;;;;5089863;28;20048;-57
2022/02/17 07:21:43;;;;;;;3.05;0.82;;;;;;;;;;5092515;28;20016;-57
2022/02/17 07:27:35;;;;;;;3.13;1.13;;;;;;;;;;5027491;28;20060;-57
2022/02/17 07:30:14;;;;;;;4.18;1.30;;;;;;;;;;5027763;28;20053;-56
2022/02/17 07:33:09;;;;;;;3.40;1.23;;;;;;;;;;5110435;28;20032;-57
2022/02/17 07:41:36;;;;;;;4.63;1.10;;;;;;;;;;5109842;28;20038;-57
2022/02/17 07:44:31;;;;;;;4.65;1.08;;;;;;;;;;5045237;28;20107;-57
2022/02/17 07:47:14;;;;;;;5.85;1.20;;;;;;;;;;5100994;28;20032;-57
2022/02/17 07:49:40;;;;;;;2.75;1.00;;;;;;;;;;5110177;28;20424;-57
2022/02/17 07:52:28;;;;;;;4.63;1.60;;;;;;;;;;5109041;28;20040;-58
2022/02/17 07:55:19;;;;;;;1.63;0.98;;;;;;;;;;5109522;28;20474;-58
2022/02/17 07:58:05;;;;;;;;;;;;;;;;;;;;;
2022/02/17 08:01:00;;;;;;;5.28;1.38;;;;;;;;;;5109847;28;20048;-57
2022/02/17 08:03:44;;;;;;;5.80;1.20;;;;;;;;;;5072477;28;20036;-57
2022/02/17 08:06:29;;;;;;;1.50;0.63;;;;;;;;;;5109678;28;20024;-57
2022/02/17 08:09:00;;;;;;;7.75;1.35;;;;;;;;;;5088877;28;20043;-58
2022/02/17 08:11:44;;;;;;;3.17;1.17;;;;;;;;;;5109875;28;20370;-57
2022/02/17 08:20:14;;;;;;;5.22;1.50;;;;;;;;;;5027402;28;20036;-56
2022/02/17 08:23:15;;;;;;;6.43;1.60;;;;;;;;;;5026513;28;20041;-57
2022/02/17 08:34:53;;;;;;;5.35;2.10;;;;;;;;;;4992625;28;20121;-54
2022/02/17 08:38:00;;;;;;;;;;;;;;;;;;;;;
2022/02/17 08:44:44;;;;;;;4.20;2.17;;;;;;;;;;5032592;28;20040;-56
2022/02/17 08:47:35;;;;;;;4.63;1.55;;;;;;;;;;5032700;28;20037;-56
2022/02/17 08:56:32;;;;;;;5.60;1.35;;;;;;;;;;5005567;28;20097;-56
2022/02/17 08:59:19;;;;;;;7.25;1.73;;;;;;;;;;5069979;28;20052;-54
2022/02/17 09:01:51;;;;;;;5.10;2.00;;;;;;;;;;5094505;28;20097;-56
2022/02/17 09:04:46;;;;;;;7.70;2.60;;;;;;;;;;5092770;28;20478;-56
2022/02/17 09:07:18;;;;;;;3.78;1.40;;;;;;;;;;5049840;28;20036;-56
2022/02/17 09:10:22;;;;;;;8.00;1.88;;;;;;;;;;5074954;28;20040;-56
2022/02/17 09:13:15;;;;;;;6.88;2.00;;;;;;;;;;5057976;28;20115;-56
2022/02/17 09:15:53;;;;;;;4.10;1.38;;;;;;;;;;5083045;28;20036;-53
2022/02/17 09:18:22;;;;;;;7.05;1.65;;;;;;;;;;5074775;28;20477;-56
2022/02/17 09:21:18;;;;;;;4.32;1.67;;;;;;;;;;5094512;28;20032;-55
2022/02/17 09:23:56;;;;;;;8.15;1.45;;;;;;;;;;5094946;28;20088;-55
2022/02/17 09:30:09;;;;;;;5.70;1.73;;;;;;;;;;5076929;28;20394;-57
2022/02/17 09:32:46;;;;;;;5.03;2.88;;;;;;;;;;5089257;28;20033;-57
2022/02/17 09:35:22;;;;;;;6.70;2.58;;;;;;;;;;5094145;28;20028;-57
2022/02/17 09:38:14;;;;;;;;;;;;;;;;;;;;;
2022/02/17 09:41:06;;;;;;;;;;;;;;;;;;;;;
2022/02/17 09:43:55;;;;;;;9.50;2.50;;;;;;;;;;5093414;28;20545;-55
2022/02/17 09:46:41;;;;;;;;;;;;;;;;;;;;;
2022/02/17 09:52:11;;;;;;;7.38;1.77;;;;;;;;;;5080194;28;20028;-55
2022/02/17 09:55:16;;;;;;;4.40;1.70;;;;;;;;;;5077143;28;20489;-57
2022/02/17 09:57:54;;;;;;;3.28;1.45;;;;;;;;;;5031884;28;20394;-55
2022/02/17 10:00:32;;;;;;;2.80;1.17;;;;;;;;;;5031405;28;20037;-53
2022/02/17 10:10:08;;;;;;;12.00;2.15;;;;;;;;;;5031067;28;20046;-57
2022/02/17 10:19:10;;;;;;;5.45;2.20;;;;;;;;;;5035448;28;20040;-56
2022/02/17 10:25:06;;;;;;;11.15;2.85;;;;;;;;;;5096947;28;20489;-57
2022/02/17 10:27:47;;;;;;;7.97;1.55;;;;;;;;;;5096801;28;20028;-56
2022/02/17 10:30:47;;;;;;;8.45;2.55;;;;;;;;;;5097673;28;20091;-56
2022/02/17 10:33:36;;;;;;;4.97;2.00;;;;;;;;;;5111346;28;20044;-56
2022/02/17 10:36:18;;;;;;;7.47;2.45;;;;;;;;;;5010014;28;20034;-57
2022/02/17 10:45:18;;;;;;;10.07;3.15;;;;;;;;;;5009061;28;20057;-56
2022/02/17 10:48:09;;;;;;;10.25;2.05;;;;;;;;;;5009614;28;20027;-56
2022/02/17 10:53:45;;;;;;;7.30;1.80;;;;;;;;;;5005003;28;20086;-55
2022/02/17 11:02:17;;;;;;;5.43;1.55;;;;;;;;;;5109801;28;20096;-58
2022/02/17 11:05:14;;;;;;;9.93;2.00;;;;;;;;;;5111076;28;20031;-58
2022/02/17 11:14:07;;;;;;;9.30;1.98;;;;;;;;;;4989563;28;20043;-58
2022/02/17 11:16:49;;;;;;;7.55;2.20;;;;;;;;;;4990007;28;20058;-58
2022/02/17 11:19:39;;;;;;;8.73;2.00;;;;;;;;;;5087831;28;20040;-57
2022/02/17 11:22:18;;;;;;;7.33;2.07;;;;;;;;;;5060719;28;20045;-57
2022/02/17 11:31:21;;;;;;;4.80;1.60;;;;;;;;;;4984781;28;20049;-58
2022/02/17 11:34:16;;;;;;;5.88;1.38;;;;;;;;;;4973739;28;20558;-58
2022/02/17 11:36:57;;;;;;;9.10;2.97;;;;;;;;;;4983361;28;20101;-57
2022/02/17 11:39:53;;;;;;;6.75;2.38;;;;;;;;;;4983656;28;20034;-59
2022/02/17 11:45:36;;;;;;;12.70;2.78;;;;;;;;;;5076766;28;20454;-58
2022/02/17 11:48:19;;;;;;;5.30;2.00;;;;;;;;;;5056342;28;20532;-57
2022/02/17 12:00:26;;;;;;;;;;;;;;;;;;;;;
2022/02/17 12:03:11;;;;;;;4.07;2.03;;;;;;;;;;4976054;28;20029;-58
2022/02/17 12:06:09;;;;;;;10.82;3.25;;;;;;;;;;5014234;28;20387;-57
2022/02/17 12:08:56;;;;;;;7.35;1.92;;;;;;;;;;5087117;28;20405;-58
2022/02/17 12:11:53;;;;;;;9.70;2.78;;;;;;;;;;5094827;28;20488;-58
2022/02/17 12:17:07;;;;;;;10.25;2.45;;;;;;;;;;5095264;28;20039;-58
2022/02/17 12:19:50;;;;;;;14.57;2.58;;;;;;;;;;5077239;28;20040;-58
2022/02/17 12:23:07;;;;;;;;;;;;;;;;;;;;;
2022/02/17 12:25:56;;;;;;;17.52;4.18;;;;;;;;;;4992950;28;20030;-57
2022/02/17 12:28:31;;;;;;;9.35;3.47;;;;;;;;;;5094820;28;20099;-58
2022/02/17 12:34:04;;;;;;;8.05;2.50;;;;;;;;;;5083301;28;20119;-57
2022/02/17 12:36:55;;;;;;;9.68;3.25;;;;;;;;;;5094765;28;20107;-58
2022/02/17 12:39:44;;;;;;;11.40;3.03;;;;;;;;;;5075107;28;20043;-57
2022/02/17 12:42:30;;;;;;;16.20;4.07;;;;;;;;;;5094210;28;20028;-57
2022/02/17 12:45:22;;;;;;;12.20;3.05;;;;;;;;;;5093947;28;20478;-58
2022/02/17 12:48:03;;;;;;;9.70;2.50;;;;;;;;;;5083980;28;20051;-57
2022/02/17 12:50:35;;;;;;;8.85;2.50;;;;;;;;;;5094621;28;20125;-58
2022/02/17 12:56:40;;;;;;;8.82;2.65;;;;;;;;;;5089141;28;20028;-58
2022/02/17 12:59:24;;;;;;;12.85;3.28;;;;;;;;;;5088234;28;20031;-57
2022/02/17 13:04:57;;;;;;;11.07;2.58;;;;;;;;;;5094598;28;20516;-58
2022/02/17 13:07:33;;;;;;;8.75;2.70;;;;;;;;;;5094772;28;20028;-58
2022/02/17 13:10:25;;;;;;;6.90;2.17;;;;;;;;;;5093379;28;20469;-58
2022/02/17 13:13:10;;;;;;;9.82;1.67;;;;;;;;;;5076898;28;20384;-58
2022/02/17 13:15:54;;;;;;;4.97;2.08;;;;;;;;;;5094601;28;20106;-57
2022/02/17 13:18:47;;;;;;;9.70;2.97;;;;;;;;;;5077112;28;20468;-58
2022/02/17 13:21:41;;;;;;;5.90;2.67;;;;;;;;;;5076755;28;20173;-58
2022/02/17 13:24:37;;;;;;;8.45;2.85;;;;;;;;;;5076326;28;20051;-58
2022/02/17 13:27:37;;;;;;;5.07;1.73;;;;;;;;;;5095186;28;20370;-56
2022/02/17 13:36:34;;;;;;;;;;;;;;;;;;;;;
2022/02/17 13:39:19;;;;;;;10.35;2.75;;;;;;;;;;5078365;28;20020;-57
2022/02/17 13:42:12;;;;;;;12.55;3.33;;;;;;;;;;5094881;28;20024;-58
2022/02/17 13:44:55;;;;;;;8.43;3.40;;;;;;;;;;5091139;28;20359;-58
2022/02/17 13:50:53;;;;;;;13.27;3.25;;;;;;;;;;5012672;28;20088;-58
2022/02/17 13:53:52;;;;;;;;;;;;;;;;;;;;;
2022/02/17 13:56:40;;;;;;;5.95;1.85;;;;;;;;;;5087570;28;20036;-58
2022/02/17 13:59:09;;;;;;;18.50;4.53;;;;;;;;;;5074650;28;20084;-59
2022/02/17 14:01:48;;;;;;;9.98;2.97;;;;;;;;;;5052334;28;20469;-58
2022/02/17 14:07:16;;;;;;;14.45;2.95;;;;;;;;;;5096954;28;20482;-57
2022/02/17 14:16:27;;;;;;;7.97;2.50;;;;;;;;;;5014921;28;20041;-57
2022/02/17 14:19:40;;;;;;;10.88;2.28;;;;;;;;;;5014939;28;20037;-58
2022/02/17 14:22:26;;;;;;;8.00;2.25;;;;;;;;;;5014624;28;20033;-58
2022/02/17 14:27:41;;;;;;;8.82;2.72;;;;;;;;;;4995226;28;20038;-58
2022/02/17 14:34:07;;;;;;;11.90;1.58;;;;;;;;;;5000170;28;20509;-59
2022/02/17 14:36:45;;;;;;;5.80;2.25;;;;;;;;;;4967522;28;20535;-56
2022/02/17 14:39:16;;;;;;;7.63;2.45;;;;;;;;;;4996612;28;20044;-56
2022/02/17 14:41:57;;;;;;;8.77;2.40;;;;;;;;;;5054553;28;20148;-57
2022/02/17 14:47:37;;;;;;;11.02;2.92;;;;;;;;;;5051099;28;20026;-54
2022/02/17 14:53:28;;;;;;;9.07;1.98;;;;;;;;;;5054628;28;20546;-58
2022/02/17 14:59:18;;;;;;;7.60;1.52;;;;;;;;;;5051137;28;20071;-57
2022/02/17 15:02:10;;;;;;;5.00;1.88;;;;;;;;;;5084700;28;20036;-58
2022/02/17 15:04:57;;;;;;;9.93;2.78;;;;;;;;;;5083377;28;20028;-59
2022/02/17 15:07:41;;;;;;;7.18;2.35;;;;;;;;;;5079194;28;20043;-58
2022/02/17 15:10:34;;;;;;;10.32;2.25;;;;;;;;;;5076492;28;20579;-57
2022/02/17 15:13:13;;;;;;;11.25;2.13;;;;;;;;;;5096489;28;20077;-59
2022/02/17 15:16:11;;;;;;;6.60;2.60;;;;;;;;;;5096320;28;20020;-58
2022/02/17 15:19:12;;;;;;;13.63;2.95;;;;;;;;;;5088607;28;20036;-58
2022/02/17 15:21:52;;;;;;;4.93;1.92;;;;;;;;;;5096406;28;20039;-57
2022/02/17 15:24:31;;;;;;;7.60;1.80;;;;;;;;;;5096998;28;20024;-58
2022/02/17 15:27:04;;;;;;;6.50;2.45;;;;;;;;;;5096743;28;20536;-59
2022/02/17 15:33:17;;;;;;;6.35;2.28;;;;;;;;;;5096367;28;20036;-58
2022/02/17 15:36:08;;;;;;;;;;;;;;;;;;;;;
2022/02/17 15:42:00;;;;;;;;;;;;;;;;;;;;;
2022/02/17 15:44:46;;;;;;;6.13;1.67;;;;;;;;;;5029489;28;20105;-57
2022/02/17 15:47:28;;;;;;;8.98;1.88;;;;;;;;;;5025566;28;20025;-58
2022/02/17 15:50:13;;;;;;;5.97;1.92;;;;;;;;;;5033483;28;20039;-58
2022/02/17 15:56:15;;;;;;;8.80;2.42;;;;;;;;;;4974103;28;20023;-57
2022/02/17 15:59:14;;;;;;;11.30;2.67;;;;;;;;;;4971128;28;20133;-59
2022/02/17 16:01:43;;;;;;;6.30;2.03;;;;;;;;;;4975321;28;20425;-58
2022/02/17 16:04:24;;;;;;;5.57;2.25;;;;;;;;;;4975089;28;20038;-59
2022/02/17 16:07:19;;;;;;;;;;;;;;;;;;;;;
2022/02/17 16:10:03;;;;;;;12.25;3.28;;;;;;;;;;4975452;28;20249;-58
2022/02/17 16:15:37;;;;;;;8.93;2.95;;;;;;;;;;4986493;28;20388;-58
2022/02/17 16:18:19;;;;;;;6.18;1.70;;;;;;;;;;4992382;28;20086;-58
2022/02/17 16:21:26;;;;;;;10.43;2.13;;;;;;;;;;4993348;28;20034;-58
2022/02/17 16:24:11;;;;;;;10.82;2.97;;;;;;;;;;4993380;28;20516;-58
2022/02/17 16:29:47;;;;;;;6.10;1.67;;;;;;;;;;4992670;28;20038;-58
2022/02/17 16:32:41;;;;;;;9.77;2.80;;;;;;;;;;5028601;28;20032;-58
2022/02/17 16:35:31;;;;;;;;;;;;;;;;;;;;;
2022/02/17 16:38:38;;;;;;;7.68;1.85;;;;;;;;;;5074307;28;20087;-58
2022/02/17 16:44:34;;;;;;;;;;;;;;;;;;;;;
2022/02/17 16:47:24;;;;;;;5.78;2.03;;;;;;;;;;5073873;28;20137;-58
2022/02/17 16:50:03;;;;;;;9.25;3.97;;;;;;;;;;5074525;28;20079;-58
2022/02/17 16:52:41;;;;;;;10.15;2.72;;;;;;;;;;5053757;28;20558;-58
2022/02/17 16:55:39;;;;;;;9.70;3.25;;;;;;;;;;5074601;28;20055;-58
2022/02/17 17:03:50;;;;;;;11.63;3.38;;;;;;;;;;5074065;28;20051;-58
2022/02/17 17:06:39;;;;;;;7.32;2.50;;;;;;;;;;5073301;28;20474;-58
2022/02/17 17:09:13;;;;;;;8.00;2.30;;;;;;;;;;5073713;28;20056;-59
2022/02/17 17:12:08;;;;;;;9.60;3.13;;;;;;;;;;5092020;28;20462;-55
2022/02/17 17:20:51;;;;;;;19.35;3.78;;;;;;;;;;5083280;28;20107;-58
2022/02/17 17:26:32;;;;;;;11.48;2.78;;;;;;;;;;5096982;28;20081;-58
2022/02/17 17:29:14;;;;;;;12.05;4.35;;;;;;;;;;5073781;28;20543;-58
2022/02/17 17:31:41;;;;;;;4.97;2.70;;;;;;;;;;5049162;28;20044;-58
2022/02/17 17:37:59;;;;;;;8.20;3.28;;;;;;;;;;5098356;28;20535;-58
2022/02/17 17:40:45;;;;;;;12.10;2.72;;;;;;;;;;4995859;28;20503;-59
2022/02/17 17:43:40;;;;;;;7.30;2.00;;;;;;;;;;5093432;28;20035;-58
2022/02/17 17:52:20;;;;;;;10.18;2.97;;;;;;;;;;5082962;28;20082;-59
2022/02/17 17:55:25;;;;;;;19.27;4.35;;;;;;;;;;5080419;28;20024;-58
2022/02/17 17:58:04;;;;;;;7.25;2.97;;;;;;;;;;4997141;28;20460;-57
2022/02/17 18:00:51;;;;;;;9.82;3.22;;;;;;;;;;4942570;29;20050;-58
2022/02/17 18:03:24;;;;;;;10.90;2.65;;;;;;;;;;4957437;29;20642;-58
2022/02/17 18:05:59;;;;;;;10.20;3.08;;;;;;;;;;4957706;29;20046;-58
2022/02/17 18:08:51;;;;;;;7.82;2.90;;;;;;;;;;4957295;29;20027;-58
2022/02/17 18:11:32;;;;;;;12.32;2.92;;;;;;;;;;4955402;29;20389;-58
2022/02/17 18:23:11;;;;;;;13.65;3.50;;;;;;;;;;4938103;29;20110;-58
2022/02/17 18:29:27;;;;;;;11.65;2.72;;;;;;;;;;4989827;28;20041;-58
2022/02/17 18:31:56;;;;;;;11.52;3.47;;;;;;;;;;5037112;28;20131;-59
2022/02/17 18:34:38;;;;;;;17.65;3.78;;;;;;;;;;5076164;28;20025;-59
2022/02/17 18:37:23;;;;;;;6.38;2.08;;;;;;;;;;5052395;28;20036;-57
2022/02/17 18:40:14;;;;;;;9.80;3.88;;;;;;;;;;5057897;28;20035;-58
2022/02/17 18:45:59;;;;;;;16.65;4.20;;;;;;;;;;5054817;28;20409;-57
2022/02/17 18:48:45;;;;;;;13.38;2.90;;;;;;;;;;5077044;28;20083;-58
2022/02/17 18:51:33;;;;;;;9.50;3.15;;;;;;;;;;5064844;28;20048;-59
2022/02/17 18:54:32;;;;;;;;;;;;;;;;;;;;;
2022/02/17 19:00:34;;;;;;;12.48;3.08;;;;;;;;;;5076302;28;20102;-58
2022/02/17 19:06:28;;;;;;;;;;;;;;;;;;;;;
2022/02/17 19:09:16;;;;;;;;;;;;;;;;;;;;;
2022/02/17 19:11:55;;;;;;;13.73;3.05;;;;;;;;;;5071802;28;20500;-58
2022/02/17 19:20:22;;;;;;;8.65;2.85;;;;;;;;;;5081591;28;20028;-58
2022/02/17 19:23:07;;;;;;;11.60;3.85;;;;;;;;;;5096093;28;20057;-58
2022/02/17 19:29:21;;;;;;;18.77;3.72;;;;;;;;;;5071779;28;20032;-58
2022/02/17 19:34:55;;;;;;;18.17;4.75;;;;;;;;;;5082224;28;20151;-58
2022/02/17 19:37:46;;;;;;;10.32;2.60;;;;;;;;;;5096297;28;20028;-58
2022/02/17 19:40:37;;;;;;;5.38;2.55;;;;;;;;;;5096015;28;20051;-58
2022/02/17 19:43:22;;;;;;;8.18;2.10;;;;;;;;;;5095669;28;20032;-57
2022/02/17 19:49:13;;;;;;;11.48;3.05;;;;;;;;;;5084136;28;20028;-58
2022/02/17 19:52:15;;;;;;;15.23;3.85;;;;;;;;;;5082822;28;20354;-58
2022/02/17 19:58:14;;;;;;;17.60;3.22;;;;;;;;;;5096453;28;20474;-58
2022/02/17 20:07:05;;;;;;;9.45;2.42;;;;;;;;;;5048894;28;20055;-58
2022/02/17 20:09:48;;;;;;;13.68;2.92;;;;;;;;;;5096440;28;20059;-59
2022/02/17 20:12:46;;;;;;;12.93;4.13;;;;;;;;;;5092807;28;20466;-59
2022/02/17 20:15:47;;;;;;;19.63;3.97;;;;;;;;;;4978490;28;20382;-59
2022/02/17 20:18:34;;;;;;;6.05;2.13;;;;;;;;;;4933492;28;20541;-58
2022/02/17 20:21:02;;;;;;;7.45;2.13;;;;;;;;;;5069321;28;20041;-58
2022/02/17 20:24:01;;;;;;;8.88;2.28;;;;;;;;;;5057067;28;20462;-57
2022/02/17 20:26:52;;;;;;;12.05;3.88;;;;;;;;;;5056180;28;20094;-59
2022/02/17 20:35:51;;;;;;;9.63;2.88;;;;;;;;;;5062582;28;20049;-59
2022/02/17 20:38:38;;;;;;;9.15;2.45;;;;;;;;;;5007641;28;20071;-59
2022/02/17 20:41:13;;;;;;;9.13;2.78;;;;;;;;;;5075826;28;20179;-59
2022/02/17 20:43:46;;;;;;;9.05;3.20;;;;;;;;;;5055538;28;20036;-58
2022/02/17 20:55:25;;;;;;;7.65;2.45;;;;;;;;;;5056178;28;20020;-59
2022/02/17 20:58:12;;;;;;;10.93;3.03;;;;;;;;;;5031916;28;20033;-59
2022/02/17 21:01:22;;;;;;;13.02;4.32;;;;;;;;;;5001341;28;20490;-58
2022/02/17 21:06:59;;;;;;;16.92;3.28;;;;;;;;;;5031570;28;20622;-58
2022/02/17 21:09:58;;;;;;;7.95;2.85;;;;;;;;;;5032299;28;20074;-59
2022/02/17 21:12:54;;;;;;;9.68;3.85;;;;;;;;;;4937370;29;20441;-57
2022/02/17 21:18:11;;;;;;;7.32;2.45;;;;;;;;;;4969160;28;20131;-58
2022/02/17 21:24:00;;;;;;;14.68;4.40;;;;;;;;;;4973214;28;20041;-58
2022/02/17 21:32:44;;;;;;;8.95;2.08;;;;;;;;;;5089854;28;20036;-57
2022/02/17 21:35:32;;;;;;;12.02;3.72;;;;;;;;;;5074509;28;20043;-59
2022/02/17 21:38:19;;;;;;;8.45;2.72;;;;;;;;;;5088909;28;20040;-58
2022/02/17 21:41:04;;;;;;;13.18;3.05;;;;;;;;;;5094679;28;20024;-59
2022/02/17 21:50:15;;;;;;;10.27;2.63;;;;;;;;;;4992357;28;20121;-59
2022/02/17 21:52:46;;;;;;;11.52;3.70;;;;;;;;;;4992367;28;20038;-59
2022/02/17 21:55:48;;;;;;;18.38;3.67;;;;;;;;;;5065998;28;20033;-59
2022/02/17 21:58:23;;;;;;;;;;;;;;;;;;5076229;28;20040;-58
2022/02/17 22:01:00;;;;;;;12.65;3.72;;;;;;;;;;5092973;28;19911;-58
2022/02/17 22:03:57;;;;;;;;;;;;;;;;;;;;;
2022/02/17 22:09:50;;;;;;;10.20;3.92;;;;;;;;;;5026470;28;20026;-58
2022/02/17 22:15:43;;;;;;;11.55;3.45;;;;;;;;;;5107296;28;20083;-59
2022/02/17 22:18:45;;;;;;;7.90;1.90;;;;;;;;;;5106544;28;20032;-59
2022/02/17 22:21:27;;;;;;;11.45;2.90;;;;;;;;;;5010333;28;20109;-59
2022/02/17 22:24:10;;;;;;;6.93;3.33;;;;;;;;;;5010608;28;20023;-59
2022/02/17 22:26:48;;;;;;;14.43;4.10;;;;;;;;;;5010353;28;20034;-58
2022/02/17 22:29:42;;;;;;;9.73;3.17;;;;;;;;;;5010711;28;20050;-59
2022/02/17 22:32:20;;;;;;;11.82;2.92;;;;;;;;;;5080634;28;20032;-59
2022/02/17 22:35:03;;;;;;;9.55;2.80;;;;;;;;;;5111656;28;20016;-59
2022/02/17 22:37:45;;;;;;;11.32;3.20;;;;;;;;;;5069495;28;20041;-59
2022/02/17 22:40:18;;;;;;;;;;;;;;;;;;5009834;28;20037;-58
2022/02/17 22:43:06;;;;;;;9.90;2.17;;;;;;;;;;5029843;28;20343;-59
2022/02/17 22:45:37;;;;;;;14.45;3.58;;;;;;;;;;5029582;28;20037;-59
2022/02/17 22:48:31;;;;;;;10.30;2.90;;;;;;;;;;5030032;28;20045;-59
2022/02/17 22:51:16;;;;;;;13.25;3.67;;;;;;;;;;5029112;28;20042;-59
2022/02/17 22:54:10;;;;;;;10.07;2.88;;;;;;;;;;5013212;28;20042;-59
2022/02/17 22:57:01;;;;;;;10.02;3.92;;;;;;;;;;5029601;28;20025;-58
2022/02/17 22:59:48;;;;;;;13.05;3.55;;;;;;;;;;4980549;28;20029;-59
2022/02/17 23:02:46;;;;;;;11.95;3.05;;;;;;;;;;5051690;28;20060;-59
2022/02/17 23:05:22;;;;;;;10.02;3.28;;;;;;;;;;4990126;28;20036;-59
2022/02/17 23:11:12;;;;;;;11.60;3.08;;;;;;;;;;5082515;28;20084;-59
2022/02/17 23:23:00;;;;;;;14.05;4.88;;;;;;;;;;5007294;28;20073;-59
2022/02/17 23:31:31;;;;;;;;;;;;;;;;;;;;;
2022/02/17 23:38:05;;;;;;;14.45;3.63;;;;;;;;;;5004683;28;20035;-59
2022/02/17 23:40:37;;;;;;;17.58;3.53;;;;;;;;;;5092746;28;20043;-59
2022/02/17 23:43:24;;;;;;;13.27;3.28;;;;;;;;;;5048216;28;20108;-59
2022/02/17 23:45:57;;;;;;;7.30;2.80;;;;;;;;;;5048305;28;20032;-59
2022/02/17 23:48:39;;;;;;;14.88;3.45;;;;;;;;;;5031302;28;20033;-59
2022/02/17 23:51:43;;;;;;;;;;;;;;;;;;;;;
2022/02/17 23:54:31;;;;;;;13.65;3.67;;;;;;;;;;5020858;28;20072;-59
